createdAt,value
2022-12-23T00:04:37.878Z,7.43
2022-12-23T00:09:39.342Z,11.05
2022-12-23T00:14:40.865Z,9.52
2022-12-23T00:19:42.894Z,7.80
2022-12-23T00:24:44.321Z,7.65
2022-12-23T00:29:45.833Z,7.10
2022-12-23T00:34:47.207Z,6.50
2022-12-23T00:39:53.647Z,6.40
2022-12-23T00:44:56.481Z,5.25
2022-12-23T00:49:57.976Z,5.10
2022-12-23T00:54:59.495Z,5.63
2022-12-23T01:00:00.905Z,4.05
2022-12-23T01:05:04.562Z,3.47
2022-12-23T01:10:06.158Z,4.25
2022-12-23T01:15:10.423Z,3.53
2022-12-23T01:20:12.644Z,3.42
2022-12-23T01:25:14.103Z,3.13
2022-12-23T01:30:15.656Z,2.80
2022-12-23T01:35:17.660Z,2.65
2022-12-23T01:40:19.207Z,2.35
2022-12-23T01:45:27.053Z,1.80
2022-12-23T01:50:37.074Z,1.48
2022-12-23T01:55:47.799Z,1.48
2022-12-23T02:00:52.054Z,1.90
2022-12-23T02:05:54.161Z,1.83
2022-12-23T02:11:08.849Z,1.85
2022-12-23T02:16:14.010Z,2.35
2022-12-23T02:21:34.050Z,2.00
2022-12-23T02:26:59.944Z,2.35
2022-12-23T02:32:01.355Z,2.53
2022-12-23T02:37:14.384Z,3.20
2022-12-23T02:42:18.165Z,3.78
2022-12-23T02:47:25.216Z,3.13
2022-12-23T02:52:32.638Z,3.08
2022-12-23T02:57:38.837Z,3.55
2022-12-23T03:02:42.843Z,3.40
2022-12-23T03:07:44.503Z,4.10
2022-12-23T03:13:07.486Z,3.85
2022-12-23T03:18:30.584Z,3.55
2022-12-23T03:23:44.530Z,3.85
2022-12-23T03:28:55.827Z,3.10
2022-12-23T03:34:23.627Z,3.55
2022-12-23T03:39:33.002Z,3.17
2022-12-23T03:44:38.475Z,3.60
2022-12-23T03:49:45.465Z,3.60
2022-12-23T03:54:55.179Z,3.00
2022-12-23T03:59:56.980Z,3.15
2022-12-23T04:05:08.852Z,3.13
2022-12-23T04:10:11.228Z,2.85
2022-12-23T04:15:13.580Z,2.72
2022-12-23T04:20:15.740Z,2.55
2022-12-23T04:25:18.367Z,2.40
2022-12-23T04:30:20.010Z,2.20
2022-12-23T04:35:21.524Z,2.45
2022-12-23T04:40:23.290Z,2.47
2022-12-23T04:45:29.449Z,2.88
2022-12-23T04:50:38.439Z,2.38
2022-12-23T04:55:44.023Z,1.88
2022-12-23T05:01:04.011Z,2.60
2022-12-23T05:06:06.220Z,2.05
2022-12-23T05:17:07.780Z,1.70
2022-12-23T05:22:18.380Z,1.83
2022-12-23T05:27:19.965Z,1.77
2022-12-23T05:32:21.478Z,1.83
2022-12-23T05:37:27.903Z,1.88
2022-12-23T05:42:32.565Z,2.28
2022-12-23T05:47:36.483Z,2.75
2022-12-23T05:52:38.532Z,2.25
2022-12-23T05:57:54.006Z,2.10
2022-12-23T06:02:57.680Z,2.78
2022-12-23T06:08:26.779Z,2.70
2022-12-23T06:14:13.912Z,2.25
2022-12-23T06:19:29.920Z,2.45
2022-12-23T06:24:36.842Z,2.05
2022-12-23T06:29:55.901Z,2.15
2022-12-23T06:35:19.997Z,2.17
2022-12-23T06:46:29.655Z,2.92
2022-12-23T06:52:00.163Z,2.35
2022-12-23T07:03:25.893Z,2.72
2022-12-23T07:08:33.679Z,2.85
2022-12-23T07:14:04.117Z,2.72
2022-12-23T07:19:10.265Z,3.55
2022-12-23T07:25:00.271Z,3.85
2022-12-23T07:30:03.752Z,3.13
2022-12-23T07:35:05.778Z,3.72
2022-12-23T07:40:41.002Z,3.72
2022-12-23T07:45:45.004Z,3.55
2022-12-23T07:57:45.486Z,3.40
2022-12-23T08:08:34.537Z,3.95
2022-12-23T08:14:05.088Z,4.35
2022-12-23T08:24:59.198Z,4.55
2022-12-23T08:30:09.496Z,4.72
2022-12-23T08:35:29.786Z,4.40
2022-12-23T08:48:05.470Z,4.75
2022-12-23T08:53:24.952Z,4.35
2022-12-23T08:58:45.502Z,4.07
2022-12-23T09:04:10.094Z,4.70
2022-12-23T09:09:17.293Z,4.53
2022-12-23T09:14:25.299Z,3.92
2022-12-23T09:19:52.674Z,4.85
2022-12-23T09:24:58.586Z,3.95
2022-12-23T09:30:16.470Z,3.15
2022-12-23T09:35:20.627Z,2.72
2022-12-23T09:40:27.148Z,2.60
2022-12-23T09:46:06.746Z,2.65
2022-12-23T09:51:11.188Z,2.95
2022-12-23T09:56:41.946Z,2.67
2022-12-23T10:02:00.987Z,2.83
2022-12-23T10:07:05.496Z,2.95
2022-12-23T10:12:40.127Z,3.25
2022-12-23T10:17:43.354Z,2.78
2022-12-23T10:22:50.762Z,3.40
2022-12-23T10:27:52.201Z,3.40
2022-12-23T10:33:18.078Z,3.63
2022-12-23T10:38:35.629Z,3.35
2022-12-23T10:43:43.807Z,3.50
2022-12-23T10:49:14.282Z,3.53
2022-12-23T10:54:40.001Z,4.32
2022-12-23T10:59:43.918Z,3.85
2022-12-23T11:04:48.419Z,3.78
2022-12-23T11:09:58.900Z,3.85
2022-12-23T11:15:00.751Z,2.90
2022-12-23T11:20:11.214Z,3.13
2022-12-23T11:25:37.387Z,3.42
2022-12-23T11:31:10.131Z,2.60
2022-12-23T11:36:19.758Z,3.47
2022-12-23T11:41:24.029Z,3.50
2022-12-23T11:46:28.908Z,2.80
2022-12-23T11:51:30.457Z,3.42
2022-12-23T11:56:42.829Z,3.17
2022-12-23T12:01:57.951Z,2.75
2022-12-23T12:07:01.055Z,3.47
2022-12-23T12:12:07.371Z,3.63
2022-12-23T12:17:33.355Z,3.00
2022-12-23T12:22:40.504Z,3.22
2022-12-23T12:27:45.943Z,3.22
2022-12-23T12:33:19.400Z,3.33
2022-12-23T12:38:35.392Z,2.70
2022-12-23T12:49:41.825Z,3.15
2022-12-23T13:06:33.016Z,4.50
2022-12-23T13:11:42.076Z,2.10
2022-12-23T13:17:04.361Z,2.75
2022-12-23T13:22:16.107Z,2.30
2022-12-23T13:27:36.678Z,1.90
2022-12-23T13:33:21.997Z,2.03
2022-12-23T13:38:54.571Z,1.85
2022-12-23T13:44:04.588Z,3.63
2022-12-23T13:49:30.601Z,3.65
2022-12-23T13:55:21.895Z,2.58
2022-12-23T14:00:31.231Z,2.22
2022-12-23T14:05:46.098Z,2.10
2022-12-23T14:11:12.405Z,2.35
2022-12-23T14:17:03.436Z,2.38
2022-12-23T14:22:35.659Z,3.42
2022-12-23T14:28:04.154Z,2.92
2022-12-23T14:33:38.483Z,3.35
2022-12-23T14:38:42.324Z,3.00
2022-12-23T14:43:53.228Z,2.97
2022-12-23T14:49:22.473Z,2.65
2022-12-23T14:54:38.844Z,3.00
2022-12-23T15:05:32.525Z,3.20
2022-12-23T15:10:40.547Z,4.10
2022-12-23T15:16:00.977Z,3.97
2022-12-23T15:21:18.266Z,3.30
2022-12-23T15:26:24.050Z,4.07
2022-12-23T15:31:35.003Z,5.88
2022-12-23T15:36:40.065Z,4.15
2022-12-23T15:41:43.453Z,4.03
2022-12-23T15:46:55.601Z,3.65
2022-12-23T15:52:20.451Z,3.75
2022-12-23T15:57:38.948Z,3.40
2022-12-23T16:03:02.915Z,4.05
2022-12-23T16:08:23.070Z,3.83
2022-12-23T16:37:23.353Z,1.98
2022-12-23T16:42:28.201Z,1.60
2022-12-23T16:47:31.007Z,1.65
2022-12-23T16:53:04.677Z,2.10
2022-12-23T17:03:52.758Z,2.15
2022-12-23T17:08:54.911Z,2.20
2022-12-23T17:14:10.396Z,2.40
2022-12-23T17:19:18.153Z,1.90
2022-12-23T17:24:33.180Z,3.08
2022-12-23T17:52:28.960Z,3.28
2022-12-23T18:03:20.472Z,2.70
2022-12-23T18:19:48.644Z,3.30
2022-12-23T18:25:11.568Z,3.85
2022-12-23T18:30:19.980Z,3.75
2022-12-23T18:42:01.015Z,3.83
2022-12-23T18:46:20.882Z,4.95
2022-12-23T18:56:56.939Z,3.72
2022-12-23T19:02:05.650Z,3.22
2022-12-23T19:07:08.858Z,4.50
2022-12-23T19:12:10.656Z,5.63
2022-12-23T19:17:12.416Z,3.78
2022-12-23T19:22:16.040Z,4.20
2022-12-23T19:27:20.670Z,4.13
2022-12-23T19:32:26.731Z,3.08
2022-12-23T19:37:28.441Z,3.05
2022-12-23T19:42:32.957Z,3.50
2022-12-23T19:47:37.099Z,3.65
2022-12-23T19:52:39.074Z,4.30
2022-12-23T19:57:40.800Z,4.05
2022-12-23T20:02:42.580Z,3.60
2022-12-23T20:07:44.123Z,3.20
2022-12-23T20:12:49.069Z,3.88
2022-12-23T20:17:56.083Z,3.88
2022-12-23T20:22:57.701Z,3.63
2022-12-23T20:27:59.075Z,4.03
2022-12-23T20:33:10.602Z,3.92
2022-12-23T20:38:14.460Z,4.93
2022-12-23T20:43:18.492Z,3.83
2022-12-23T20:48:19.966Z,4.07
2022-12-23T20:53:21.643Z,3.65
2022-12-23T20:58:25.654Z,2.90
2022-12-23T21:03:27.464Z,3.08
2022-12-23T21:08:31.182Z,3.05
2022-12-23T21:13:33.086Z,3.65
2022-12-23T21:18:35.641Z,3.17
2022-12-23T21:23:38.738Z,3.53
2022-12-23T21:28:41.667Z,4.38
2022-12-23T21:33:44.398Z,3.47
2022-12-23T21:38:46.519Z,3.50
2022-12-23T21:43:49.666Z,3.30
2022-12-23T21:48:51.417Z,3.13
2022-12-23T21:53:55.062Z,3.42
2022-12-23T21:59:02.388Z,4.03
2022-12-23T22:04:04.189Z,3.42
2022-12-23T22:09:07.361Z,3.53
2022-12-23T22:14:13.251Z,2.90
2022-12-23T22:19:14.982Z,4.13
2022-12-23T22:24:16.641Z,3.78
2022-12-23T22:29:18.061Z,3.10
2022-12-23T22:34:22.331Z,3.80
2022-12-23T22:39:23.785Z,2.97
2022-12-23T22:44:25.229Z,2.92
2022-12-23T22:49:28.659Z,3.20
2022-12-23T22:59:45.526Z,4.13
2022-12-23T23:04:46.975Z,3.50
2022-12-23T23:09:49.907Z,3.58
2022-12-23T23:14:51.427Z,2.88
2022-12-23T23:19:53.709Z,4.10
2022-12-23T23:24:55.370Z,3.95
2022-12-23T23:29:56.997Z,4.50
2022-12-23T23:35:10.309Z,3.85
2022-12-23T23:40:12.144Z,4.72
2022-12-23T23:45:16.837Z,4.22
2022-12-23T23:50:18.324Z,3.72
2022-12-23T23:55:20.918Z,4.20
